createdAt,value
2023-02-22T00:00:53.000Z,0.2
2023-02-22T00:02:09.000Z,0.1
2023-02-22T00:03:25.000Z,0
2023-02-22T00:04:42.275Z,0
2023-02-22T00:05:58.428Z,0
2023-02-22T00:07:14.000Z,0.2
2023-02-22T00:08:30.000Z,0.1
2023-02-22T00:09:46.000Z,0
2023-02-22T00:11:02.000Z,0
2023-02-22T00:12:18.000Z,0
2023-02-22T00:13:34.000Z,0
2023-02-22T00:14:50.000Z,0
2023-02-22T00:16:06.000Z,0
2023-02-22T00:17:22.000Z,0
2023-02-22T00:18:38.000Z,0
2023-02-22T00:19:54.000Z,0
2023-02-22T00:21:10.000Z,0
2023-02-22T00:22:27.000Z,0
2023-02-22T00:23:43.501Z,0
2023-02-22T00:24:59.000Z,0
2023-02-22T00:26:15.000Z,0
2023-02-22T00:27:31.000Z,0
2023-02-22T00:28:48.089Z,0
2023-02-22T00:30:03.000Z,0
2023-02-22T00:31:19.000Z,0
2023-02-22T00:32:35.000Z,0
2023-02-22T00:35:07.000Z,0
2023-02-22T00:36:23.000Z,0
2023-02-22T00:37:39.000Z,0
2023-02-22T00:38:56.000Z,0
2023-02-22T00:40:12.000Z,0
2023-02-22T00:41:28.000Z,0
2023-02-22T00:42:44.000Z,0
2023-02-22T00:44:00.870Z,0
2023-02-22T00:45:16.000Z,0
2023-02-22T00:46:31.000Z,0
2023-02-22T00:47:48.000Z,0
2023-02-22T00:49:04.000Z,0
2023-02-22T00:50:20.000Z,0
2023-02-22T00:51:36.000Z,0
2023-02-22T00:52:52.000Z,0
2023-02-22T00:54:08.000Z,0
2023-02-22T00:55:24.000Z,0
2023-02-22T00:56:41.000Z,0
2023-02-22T00:57:57.000Z,0
2023-02-22T00:59:13.625Z,0
2023-02-22T01:00:29.000Z,0
2023-02-22T01:01:45.000Z,0
2023-02-22T01:03:00.000Z,0
2023-02-22T01:04:17.000Z,0
2023-02-22T01:05:33.372Z,0
2023-02-22T01:06:49.000Z,0
2023-02-22T01:08:05.000Z,0
2023-02-22T01:09:21.000Z,0
2023-02-22T01:10:37.000Z,0
2023-02-22T01:11:54.109Z,0
2023-02-22T01:13:10.000Z,0
2023-02-22T01:14:26.405Z,0
2023-02-22T01:15:42.000Z,0
2023-02-22T01:16:58.000Z,0
2023-02-22T01:18:14.000Z,0
2023-02-22T01:19:29.992Z,0
2023-02-22T01:20:45.000Z,0
2023-02-22T01:22:02.000Z,0
2023-02-22T01:23:18.000Z,0
2023-02-22T01:24:34.573Z,0
2023-02-22T01:25:50.000Z,0
2023-02-22T01:27:06.000Z,0
2023-02-22T01:28:22.000Z,0
2023-02-22T01:29:39.157Z,0
2023-02-22T01:30:55.304Z,0
2023-02-22T01:32:11.450Z,0
2023-02-22T01:33:27.000Z,0
2023-02-22T01:34:43.000Z,0
2023-02-22T01:35:59.000Z,0
2023-02-22T01:37:15.044Z,0
2023-02-22T01:38:30.000Z,0
2023-02-22T01:39:47.335Z,0
2023-02-22T01:41:03.000Z,0
2023-02-22T01:42:19.000Z,0
2023-02-22T01:43:35.000Z,0
2023-02-22T01:44:51.000Z,0
2023-02-22T01:46:07.000Z,0
2023-02-22T01:48:40.000Z,0
2023-02-22T01:49:56.000Z,0
2023-02-22T01:51:12.000Z,0
2023-02-22T01:52:28.000Z,0
2023-02-22T01:53:43.000Z,0
2023-02-22T01:54:59.000Z,0
2023-02-22T01:56:16.000Z,0
2023-02-22T01:57:32.000Z,0
2023-02-22T01:58:48.533Z,0
2023-02-22T02:00:04.000Z,0
2023-02-22T02:01:20.000Z,0
2023-02-22T02:02:36.000Z,0
2023-02-22T02:03:52.000Z,0
2023-02-22T02:05:09.257Z,0
2023-02-22T02:06:25.000Z,0
2023-02-22T02:07:41.000Z,0
2023-02-22T02:08:57.694Z,0
2023-02-22T02:10:12.000Z,0
2023-02-22T02:11:28.000Z,0
2023-02-22T02:12:44.000Z,0
2023-02-22T02:14:01.000Z,0
2023-02-22T02:15:17.000Z,0
2023-02-22T02:16:33.000Z,0
2023-02-22T02:17:49.000Z,0
2023-02-22T02:19:05.000Z,0
2023-02-22T02:20:21.000Z,0
2023-02-22T02:21:38.171Z,0
2023-02-22T02:22:54.316Z,0
2023-02-22T02:24:10.000Z,0
2023-02-22T02:25:26.000Z,0
2023-02-22T02:26:41.000Z,0
2023-02-22T02:27:57.000Z,0
2023-02-22T02:29:13.000Z,0
2023-02-22T02:30:29.000Z,0
2023-02-22T02:31:46.000Z,0
2023-02-22T02:33:02.000Z,0
2023-02-22T02:34:18.000Z,0
2023-02-22T02:35:34.000Z,0
2023-02-22T02:36:50.000Z,0
2023-02-22T02:38:06.000Z,0
2023-02-22T02:39:22.000Z,0
2023-02-22T02:40:39.375Z,0
2023-02-22T02:41:55.000Z,0
2023-02-22T02:43:10.679Z,0
2023-02-22T02:44:26.826Z,0
2023-02-22T02:45:42.000Z,0
2023-02-22T02:46:58.000Z,0
2023-02-22T02:48:15.261Z,0
2023-02-22T02:49:31.000Z,0
2023-02-22T02:50:46.000Z,0
2023-02-22T02:52:02.000Z,0
2023-02-22T02:53:18.863Z,0
2023-02-22T02:54:34.000Z,0
2023-02-22T02:55:50.000Z,0
2023-02-22T02:57:07.000Z,0
2023-02-22T02:58:23.000Z,0
2023-02-22T02:59:39.000Z,0
2023-02-22T03:00:55.000Z,0
2023-02-22T03:02:11.000Z,0
2023-02-22T03:03:27.000Z,0
2023-02-22T03:04:43.000Z,0
2023-02-22T03:06:00.000Z,0
2023-02-22T03:07:16.000Z,0
2023-02-22T03:08:31.000Z,0
2023-02-22T03:09:47.000Z,0
2023-02-22T03:11:03.000Z,0
2023-02-22T03:12:19.000Z,0
2023-02-22T03:13:35.000Z,0
2023-02-22T03:14:52.351Z,0
2023-02-22T03:16:08.500Z,0
2023-02-22T03:17:24.000Z,0
2023-02-22T03:18:40.807Z,0
2023-02-22T03:19:56.000Z,0
2023-02-22T03:21:12.000Z,0
2023-02-22T03:22:28.000Z,0
2023-02-22T03:23:45.000Z,0
2023-02-22T03:25:00.000Z,0
2023-02-22T03:26:16.675Z,0
2023-02-22T03:27:32.820Z,0
2023-02-22T03:28:48.000Z,0
2023-02-22T03:30:04.000Z,0
2023-02-22T03:32:37.000Z,0
2023-02-22T03:33:53.549Z,0
2023-02-22T03:35:09.000Z,0
2023-02-22T03:36:25.000Z,0
2023-02-22T03:37:41.000Z,0
2023-02-22T03:38:58.134Z,0
2023-02-22T03:40:14.000Z,0
2023-02-22T03:41:29.000Z,0
2023-02-22T03:42:45.000Z,0
2023-02-22T03:44:01.000Z,0
2023-02-22T03:45:17.000Z,0
2023-02-22T03:46:33.000Z,0
2023-02-22T03:47:49.000Z,0
2023-02-22T03:49:06.000Z,0
2023-02-22T03:50:22.000Z,0
2023-02-22T03:51:38.000Z,0
2023-02-22T03:52:54.740Z,0
2023-02-22T03:54:10.000Z,0
2023-02-22T03:55:26.000Z,0
2023-02-22T03:56:42.000Z,0
2023-02-22T03:57:58.000Z,0
2023-02-22T03:59:14.487Z,0
2023-02-22T04:00:30.000Z,0
2023-02-22T04:01:46.000Z,0
2023-02-22T04:03:02.000Z,0
2023-02-22T04:04:18.000Z,0
2023-02-22T04:05:34.000Z,0
2023-02-22T04:06:51.000Z,0
2023-02-22T04:08:07.504Z,0
2023-02-22T04:09:23.000Z,0
2023-02-22T04:10:39.000Z,0
2023-02-22T04:11:55.000Z,0
2023-02-22T04:13:11.000Z,0
2023-02-22T04:14:27.000Z,0
2023-02-22T04:15:43.000Z,0
2023-02-22T04:16:59.542Z,0
2023-02-22T04:18:15.689Z,0
2023-02-22T04:19:31.000Z,0
2023-02-22T04:20:47.000Z,0
2023-02-22T04:22:03.000Z,0
2023-02-22T04:23:20.000Z,0
2023-02-22T04:24:36.000Z,0
2023-02-22T04:25:52.000Z,0
2023-02-22T04:27:08.703Z,0
2023-02-22T04:28:24.000Z,0
2023-02-22T04:29:40.998Z,0
2023-02-22T04:30:55.000Z,0
2023-02-22T04:32:12.000Z,0
2023-02-22T04:33:28.000Z,0
2023-02-22T04:34:44.000Z,0
2023-02-22T04:36:00.000Z,0
2023-02-22T04:37:16.000Z,0
2023-02-22T04:38:32.000Z,0
2023-02-22T04:39:48.000Z,0
2023-02-22T04:41:05.000Z,0
2023-02-22T04:42:21.000Z,0
2023-02-22T04:43:37.000Z,0
2023-02-22T04:44:53.000Z,0
2023-02-22T04:46:09.000Z,0
2023-02-22T04:47:24.000Z,0
2023-02-22T04:48:40.000Z,0
2023-02-22T04:49:57.000Z,0
2023-02-22T04:51:13.000Z,0
2023-02-22T04:52:29.000Z,0
2023-02-22T04:53:45.000Z,0
2023-02-22T04:55:01.000Z,0
2023-02-22T04:56:17.000Z,0
2023-02-22T04:57:34.232Z,0
2023-02-22T04:58:50.000Z,0
2023-02-22T05:00:06.000Z,0
2023-02-22T05:01:22.000Z,0
2023-02-22T05:02:38.000Z,0
2023-02-22T05:03:54.000Z,0
2023-02-22T05:05:09.000Z,0
2023-02-22T05:06:26.000Z,0
2023-02-22T05:07:42.000Z,0
2023-02-22T05:08:58.000Z,0
2023-02-22T05:10:14.711Z,0
2023-02-22T05:11:30.000Z,0
2023-02-22T05:12:46.000Z,0
2023-02-22T05:14:02.000Z,0
2023-02-22T05:15:19.000Z,0
2023-02-22T05:16:35.457Z,0
2023-02-22T05:17:51.000Z,0
2023-02-22T05:19:07.000Z,0
2023-02-22T05:20:23.000Z,0
2023-02-22T05:21:38.000Z,0
2023-02-22T05:22:54.000Z,0
2023-02-22T05:24:11.000Z,0
2023-02-22T05:25:27.000Z,0
2023-02-22T05:26:43.000Z,0
2023-02-22T05:27:59.000Z,0
2023-02-22T05:29:15.000Z,0
2023-02-22T05:30:31.000Z,0
2023-02-22T05:31:47.000Z,0
2023-02-22T05:33:04.338Z,0
2023-02-22T05:34:20.000Z,0
2023-02-22T05:35:36.000Z,0
2023-02-22T05:36:52.775Z,0
2023-02-22T05:38:07.000Z,0
2023-02-22T05:39:23.000Z,0
2023-02-22T05:40:40.000Z,0
2023-02-22T05:41:56.000Z,0
2023-02-22T05:43:12.000Z,0
2023-02-22T05:44:28.000Z,0
2023-02-22T05:45:44.000Z,0
2023-02-22T05:47:00.953Z,0
2023-02-22T05:48:16.000Z,0
2023-02-22T05:49:33.000Z,0
2023-02-22T05:50:49.000Z,0
2023-02-22T05:52:05.000Z,0
2023-02-22T05:53:21.000Z,0
2023-02-22T05:54:36.000Z,0
2023-02-22T05:55:52.000Z,0
2023-02-22T05:57:08.000Z,0
2023-02-22T05:58:25.273Z,0
2023-02-22T05:59:41.000Z,0
2023-02-22T06:00:57.000Z,0
2023-02-22T06:02:13.000Z,0
2023-02-22T06:03:29.000Z,0
2023-02-22T06:04:45.000Z,0
2023-02-22T06:06:01.000Z,0
2023-02-22T06:07:18.000Z,0
2023-02-22T06:08:34.000Z,0
2023-02-22T06:09:50.000Z,0
2023-02-22T06:11:05.000Z,0
2023-02-22T06:12:21.000Z,0
2023-02-22T06:13:37.000Z,0
2023-02-22T06:14:54.185Z,0
2023-02-22T06:16:10.000Z,0
2023-02-22T06:17:26.000Z,0
2023-02-22T06:18:42.000Z,0
2023-02-22T06:19:58.000Z,0
2023-02-22T06:21:14.000Z,0
2023-02-22T06:23:46.000Z,0
2023-02-22T06:25:03.000Z,0
2023-02-22T06:26:19.000Z,0
2023-02-22T06:27:34.000Z,0
2023-02-22T06:28:50.000Z,0
2023-02-22T06:30:06.000Z,0
2023-02-22T06:31:22.000Z,0
2023-02-22T06:32:39.238Z,0
2023-02-22T06:33:55.000Z,0
2023-02-22T06:35:11.532Z,0
2023-02-22T06:36:27.000Z,0
2023-02-22T06:37:43.824Z,0
2023-02-22T06:38:59.000Z,0
2023-02-22T06:40:15.000Z,0
2023-02-22T06:41:32.000Z,0
2023-02-22T06:42:48.000Z,0
2023-02-22T06:44:03.000Z,0
2023-02-22T06:45:19.709Z,0
2023-02-22T06:46:35.000Z,0
2023-02-22T06:47:51.000Z,0
2023-02-22T06:49:07.000Z,0
2023-02-22T06:50:24.288Z,0
2023-02-22T06:51:40.000Z,0
2023-02-22T06:52:56.000Z,0
2023-02-22T06:54:12.000Z,0
2023-02-22T06:55:28.000Z,0
2023-02-22T06:56:44.000Z,0
2023-02-22T06:58:00.000Z,0
2023-02-22T06:59:17.000Z,0
2023-02-22T07:00:32.000Z,0
2023-02-22T07:03:04.763Z,0
2023-02-22T07:04:20.000Z,0
2023-02-22T07:05:35.000Z,0
2023-02-22T07:06:52.000Z,0
2023-02-22T07:08:08.000Z,0
2023-02-22T07:09:24.000Z,0
2023-02-22T07:10:40.656Z,0
2023-02-22T07:11:56.000Z,0
2023-02-22T07:13:12.000Z,0
2023-02-22T07:14:28.000Z,0
2023-02-22T07:15:45.000Z,0
2023-02-22T07:17:01.000Z,0
2023-02-22T07:18:17.533Z,0
2023-02-22T07:19:33.679Z,0
2023-02-22T07:20:49.000Z,0
2023-02-22T07:22:04.000Z,0
2023-02-22T07:23:20.000Z,0
2023-02-22T07:25:53.000Z,0
2023-02-22T07:27:09.000Z,0
2023-02-22T07:28:25.703Z,0
2023-02-22T07:29:41.852Z,0
2023-02-22T07:30:57.000Z,0
2023-02-22T07:32:13.000Z,0
2023-02-22T07:33:30.000Z,0
2023-02-22T07:34:46.000Z,0
2023-02-22T07:36:02.000Z,0
2023-02-22T07:37:18.000Z,0
2023-02-22T07:38:34.000Z,0
2023-02-22T07:39:49.000Z,0
2023-02-22T07:41:06.177Z,0
2023-02-22T07:42:22.000Z,0
2023-02-22T07:43:38.000Z,0
2023-02-22T07:44:54.000Z,0
2023-02-22T07:46:10.000Z,0
2023-02-22T07:47:26.000Z,0
2023-02-22T07:48:42.000Z,0
2023-02-22T07:49:58.000Z,0
2023-02-22T07:51:15.000Z,0
2023-02-22T07:52:31.000Z,0
2023-02-22T07:53:47.000Z,0
2023-02-22T07:55:03.000Z,0
2023-02-22T07:56:18.000Z,0
2023-02-22T07:57:34.000Z,0
2023-02-22T07:58:51.000Z,0
2023-02-22T08:00:07.000Z,0
2023-02-22T08:01:23.000Z,0
2023-02-22T08:02:39.000Z,0
2023-02-22T08:03:55.000Z,0
2023-02-22T08:05:11.000Z,0
2023-02-22T08:06:27.000Z,0
2023-02-22T08:07:44.245Z,0
2023-02-22T08:09:00.000Z,0
2023-02-22T08:10:16.000Z,0
2023-02-22T08:11:32.000Z,0
2023-02-22T08:12:47.000Z,0
2023-02-22T08:14:03.000Z,0
2023-02-22T08:15:19.000Z,0
2023-02-22T08:16:36.000Z,0
2023-02-22T08:17:52.000Z,0
2023-02-22T08:19:08.575Z,0.4
2023-02-22T08:20:24.000Z,1.1
2023-02-22T08:21:40.000Z,1.9
2023-02-22T08:22:57.010Z,1.4
2023-02-22T08:24:12.000Z,0.8
2023-02-22T08:25:29.000Z,3.1
2023-02-22T08:26:45.000Z,1.6
2023-02-22T08:28:01.000Z,1.6
2023-02-22T08:29:16.000Z,2.5
2023-02-22T08:30:32.000Z,2.7
2023-02-22T08:31:48.000Z,3.2
2023-02-22T08:33:05.190Z,3.8
2023-02-22T08:34:21.000Z,4.1
2023-02-22T08:35:37.495Z,5.8
2023-02-22T08:36:53.000Z,5.7
2023-02-22T08:38:09.000Z,4.5
2023-02-22T08:39:25.000Z,4
2023-02-22T08:40:41.000Z,3.7
2023-02-22T08:41:58.206Z,4.3
2023-02-22T08:43:14.350Z,4.3
2023-02-22T08:44:30.000Z,4.2
2023-02-22T08:45:45.655Z,7.1
2023-02-22T08:47:01.000Z,5.9
2023-02-22T08:48:17.954Z,5.3
2023-02-22T08:49:33.000Z,4.4
2023-02-22T08:50:50.000Z,3.7
2023-02-22T08:52:06.000Z,3.4
2023-02-22T08:53:22.524Z,3.4
2023-02-22T08:54:38.000Z,3.3
2023-02-22T08:55:54.000Z,3.4
2023-02-22T08:57:10.000Z,3.4
2023-02-22T08:58:26.000Z,3.6
2023-02-22T08:59:43.257Z,3.6
2023-02-22T09:00:59.000Z,4.1
2023-02-22T09:02:14.000Z,4.5
2023-02-22T09:03:30.000Z,4.6
2023-02-22T09:04:46.000Z,6.8
2023-02-22T09:06:02.000Z,6.1
2023-02-22T09:07:18.000Z,6
2023-02-22T09:08:35.000Z,6.3
2023-02-22T09:09:51.000Z,6.9
2023-02-22T09:11:07.591Z,6.9
2023-02-22T09:12:23.000Z,7.5
2023-02-22T09:13:39.000Z,7.6
2023-02-22T09:14:55.000Z,8.4
2023-02-22T09:16:11.000Z,8.7
2023-02-22T09:17:28.000Z,8.9
2023-02-22T09:18:43.000Z,9.5
2023-02-22T09:19:59.619Z,9.8
2023-02-22T09:21:15.000Z,10.3
2023-02-22T09:22:31.907Z,10.7
2023-02-22T09:23:48.060Z,11.1
2023-02-22T09:25:03.000Z,12.5
2023-02-22T09:26:20.000Z,12.7
2023-02-22T09:27:36.000Z,12.4
2023-02-22T09:28:52.000Z,12.4
2023-02-22T09:30:08.000Z,12.9
2023-02-22T09:31:24.000Z,12.7
2023-02-22T09:32:40.000Z,12.4
2023-02-22T09:33:56.000Z,12.8
2023-02-22T09:35:12.000Z,13.3
2023-02-22T09:36:28.000Z,13.3
2023-02-22T09:37:44.677Z,13.6
2023-02-22T09:39:00.000Z,13.7
2023-02-22T09:40:16.000Z,14
2023-02-22T09:41:32.000Z,14.2
2023-02-22T09:42:49.000Z,14.5
2023-02-22T09:44:05.000Z,14.7
2023-02-22T09:45:21.000Z,14.6
2023-02-22T09:46:37.000Z,15.2
2023-02-22T09:47:53.000Z,15.8
2023-02-22T09:49:09.997Z,16
2023-02-22T09:50:25.000Z,16.9
2023-02-22T09:51:41.000Z,17.2
2023-02-22T09:52:57.000Z,17
2023-02-22T09:54:13.000Z,17.4
2023-02-22T09:55:29.000Z,17.3
2023-02-22T09:56:45.000Z,17.7
2023-02-22T09:58:01.000Z,17.9
2023-02-22T09:59:17.000Z,17.7
2023-02-22T10:00:34.000Z,17.9
2023-02-22T10:01:50.000Z,17.8
2023-02-22T10:03:06.000Z,18.9
2023-02-22T10:04:22.000Z,19.6
2023-02-22T10:05:38.000Z,19.4
2023-02-22T10:06:54.000Z,20.1
2023-02-22T10:08:09.000Z,20.6
2023-02-22T10:09:26.000Z,20.3
2023-02-22T10:10:42.000Z,20.2
2023-02-22T10:11:58.000Z,20.2
2023-02-22T10:13:14.785Z,21.5
2023-02-22T10:14:30.000Z,21.6
2023-02-22T10:15:47.080Z,21.7
2023-02-22T10:17:02.000Z,22.3
2023-02-22T10:18:19.000Z,23.2
2023-02-22T10:19:35.000Z,23.4
2023-02-22T10:20:51.000Z,23.8
2023-02-22T10:22:07.000Z,24
2023-02-22T10:23:23.000Z,25.5
2023-02-22T10:24:40.103Z,25.6
2023-02-22T10:25:55.000Z,25.1
2023-02-22T10:27:11.000Z,24.9
2023-02-22T10:28:27.000Z,24.1
2023-02-22T10:29:43.000Z,23.4
2023-02-22T10:30:59.000Z,23.7
2023-02-22T10:32:15.000Z,23.9
2023-02-22T10:33:31.000Z,23.9
2023-02-22T10:34:48.000Z,24.1
2023-02-22T10:36:04.000Z,24.7
2023-02-22T10:37:20.000Z,26.4
2023-02-22T10:38:36.000Z,26.1
2023-02-22T10:39:52.000Z,26
2023-02-22T10:41:08.000Z,25.9
2023-02-22T10:42:23.000Z,26.6
2023-02-22T10:43:40.000Z,26.9
2023-02-22T10:44:56.000Z,27.2
2023-02-22T10:46:12.000Z,27.3
2023-02-22T10:47:28.000Z,27.1
2023-02-22T10:48:44.000Z,26.4
2023-02-22T10:50:00.000Z,28
2023-02-22T10:51:16.000Z,28.2
2023-02-22T10:52:33.000Z,28.2
2023-02-22T10:53:49.000Z,28.8
2023-02-22T10:55:05.000Z,30.8
2023-02-22T10:56:21.000Z,34.7
2023-02-22T10:57:37.000Z,35.4
2023-02-22T10:58:53.102Z,34.4
2023-02-22T11:00:09.000Z,33.8
2023-02-22T11:01:25.000Z,34.3
2023-02-22T11:02:41.000Z,34.6
2023-02-22T11:03:57.000Z,34.1
2023-02-22T11:05:13.000Z,36.9
2023-02-22T11:06:29.000Z,36.4
2023-02-22T11:07:46.132Z,36.7
2023-02-22T11:09:02.000Z,38.1
2023-02-22T11:10:18.000Z,38.7
2023-02-22T11:11:34.000Z,39
2023-02-22T11:12:50.000Z,39.9
2023-02-22T11:14:06.000Z,40
2023-02-22T11:15:21.000Z,42.7
2023-02-22T11:16:37.000Z,45.5
2023-02-22T11:17:54.000Z,46.1
2023-02-22T11:19:10.000Z,48.8
2023-02-22T11:20:25.000Z,51.7
2023-02-22T11:21:41.000Z,53.7
2023-02-22T11:22:57.000Z,55.8
2023-02-22T11:24:13.000Z,55.6
2023-02-22T11:25:29.000Z,54.1
2023-02-22T11:26:46.000Z,54.1
2023-02-22T11:28:02.000Z,62.5
2023-02-22T11:29:18.000Z,64.6
2023-02-22T11:30:34.804Z,63.6
2023-02-22T11:31:50.000Z,64.9
2023-02-22T11:33:06.000Z,69
2023-02-22T11:34:23.000Z,68.3
2023-02-22T11:35:39.000Z,69.5
2023-02-22T11:36:54.000Z,70.2
2023-02-22T11:38:10.000Z,71.3
2023-02-22T11:39:26.000Z,71.1
2023-02-22T11:40:42.000Z,72.1
2023-02-22T11:41:58.000Z,69
2023-02-22T11:43:15.000Z,68.4
2023-02-22T11:44:31.000Z,67.3
2023-02-22T11:45:47.000Z,67.7
2023-02-22T11:47:03.000Z,69.3
2023-02-22T11:48:19.000Z,70.8
2023-02-22T11:49:35.000Z,71.7
2023-02-22T11:50:51.000Z,72.9
2023-02-22T11:52:08.000Z,73.8
2023-02-22T11:53:23.000Z,73.7
2023-02-22T11:54:39.625Z,73.3
2023-02-22T11:55:55.773Z,72.4
2023-02-22T11:57:11.000Z,73
2023-02-22T11:58:27.000Z,72.3
2023-02-22T11:59:43.000Z,72.8
2023-02-22T12:01:00.000Z,73.2
2023-02-22T12:02:16.000Z,71.7
2023-02-22T12:03:32.000Z,70.3
2023-02-22T12:04:48.000Z,71.1
2023-02-22T12:06:04.000Z,72.2
2023-02-22T12:07:20.000Z,70.9
2023-02-22T12:08:37.000Z,70.2
2023-02-22T12:09:52.406Z,70.2
2023-02-22T12:11:08.000Z,69.5
2023-02-22T12:12:24.000Z,70.8
2023-02-22T12:13:40.848Z,70
2023-02-22T12:14:56.000Z,70.6
2023-02-22T12:16:12.000Z,70.5
2023-02-22T12:17:29.284Z,70.9
2023-02-22T12:18:45.000Z,71.7
2023-02-22T12:20:01.000Z,70.2
2023-02-22T12:21:17.000Z,68.9
2023-02-22T12:22:33.000Z,68.3
2023-02-22T12:23:49.000Z,66.5
2023-02-22T12:25:05.000Z,65.3
2023-02-22T12:26:21.000Z,64.2
2023-02-22T12:27:37.000Z,64.1
2023-02-22T12:28:53.000Z,63.7
2023-02-22T12:30:09.000Z,64.5
2023-02-22T12:31:25.000Z,65.3
2023-02-22T12:32:41.000Z,64.4
2023-02-22T12:33:57.000Z,63.5
2023-02-22T12:35:14.000Z,63.3
2023-02-22T12:36:30.000Z,63.7
2023-02-22T12:37:46.000Z,63.4
2023-02-22T12:39:02.000Z,62.6
2023-02-22T12:40:18.000Z,63.6
2023-02-22T12:41:34.000Z,62.6
2023-02-22T12:42:50.000Z,63.8
2023-02-22T12:44:06.000Z,64
2023-02-22T12:45:22.000Z,63.5
2023-02-22T12:46:38.000Z,62.4
2023-02-22T12:47:54.000Z,62.1
2023-02-22T12:49:10.000Z,61.3
2023-02-22T12:50:26.000Z,61.3
2023-02-22T12:51:43.000Z,64.8
2023-02-22T12:52:59.000Z,64.4
2023-02-22T12:54:15.000Z,63.2
2023-02-22T12:55:31.000Z,64.8
2023-02-22T12:56:47.000Z,65.2
2023-02-22T12:58:03.000Z,63.8
2023-02-22T12:59:18.000Z,64.1
2023-02-22T13:00:35.000Z,64.4
2023-02-22T13:01:51.468Z,64
2023-02-22T13:03:07.000Z,63.6
2023-02-22T13:04:23.000Z,64.7
2023-02-22T13:05:39.000Z,63.4
2023-02-22T13:06:55.000Z,63.1
2023-02-22T13:08:11.000Z,64.2
2023-02-22T13:09:28.000Z,63.6
2023-02-22T13:10:44.000Z,63.4
2023-02-22T13:12:00.000Z,63.9
2023-02-22T13:13:16.000Z,63.9
2023-02-22T13:14:32.000Z,65.5
2023-02-22T13:15:47.000Z,65.7
2023-02-22T13:17:04.000Z,65.9
2023-02-22T13:18:20.393Z,65.5
2023-02-22T13:19:36.000Z,65.3
2023-02-22T13:20:52.000Z,66.2
2023-02-22T13:22:08.000Z,65.8
2023-02-22T13:23:24.000Z,64.3
2023-02-22T13:24:40.000Z,65
2023-02-22T13:25:57.000Z,66
2023-02-22T13:27:13.000Z,65.7
2023-02-22T13:28:29.000Z,66.6
2023-02-22T13:29:45.000Z,65.3
2023-02-22T13:31:01.000Z,64
2023-02-22T13:32:16.000Z,63
2023-02-22T13:33:32.000Z,65.3
2023-02-22T13:34:49.318Z,66.3
2023-02-22T13:36:05.000Z,66.8
2023-02-22T13:37:21.000Z,67
2023-02-22T13:38:37.000Z,68.8
2023-02-22T13:39:53.000Z,71.7
2023-02-22T13:41:09.000Z,69
2023-02-22T13:42:25.000Z,68.2
2023-02-22T13:43:42.343Z,69
2023-02-22T13:44:58.000Z,69.3
2023-02-22T13:46:14.000Z,68.8
2023-02-22T13:47:30.000Z,70.5
2023-02-22T13:48:45.000Z,71.3
2023-02-22T13:50:01.000Z,70.4
2023-02-22T13:51:18.240Z,70.4
2023-02-22T13:52:34.000Z,70.7
2023-02-22T13:53:50.000Z,72.3
2023-02-22T13:55:06.000Z,71
2023-02-22T13:56:22.000Z,70.5
2023-02-22T13:57:38.000Z,71.1
2023-02-22T13:58:54.000Z,68.2
2023-02-22T14:00:11.000Z,66.2
2023-02-22T14:01:27.000Z,66.7
2023-02-22T14:02:43.000Z,67.3
2023-02-22T14:03:59.000Z,68
2023-02-22T14:05:14.000Z,67.9
2023-02-22T14:06:30.000Z,67
2023-02-22T14:07:46.000Z,68.1
2023-02-22T14:09:03.000Z,69
2023-02-22T14:10:19.000Z,67.9
2023-02-22T14:11:35.000Z,66.4
2023-02-22T14:12:51.754Z,66.6
2023-02-22T14:14:07.897Z,66.9
2023-02-22T14:15:23.000Z,67.2
2023-02-22T14:16:40.191Z,67.9
2023-02-22T14:17:56.000Z,68.8
2023-02-22T14:19:12.000Z,70
2023-02-22T14:20:28.000Z,69
2023-02-22T14:21:43.000Z,69.1
2023-02-22T14:22:59.000Z,67.8
2023-02-22T14:24:15.000Z,66.7
2023-02-22T14:25:32.000Z,66.7
2023-02-22T14:26:48.000Z,65.9
2023-02-22T14:28:04.000Z,66.4
2023-02-22T14:29:20.000Z,65.8
2023-02-22T14:30:36.000Z,65.5
2023-02-22T14:31:52.000Z,66.3
2023-02-22T14:33:09.120Z,67.4
2023-02-22T14:34:25.000Z,67.6
2023-02-22T14:35:41.415Z,66.8
2023-02-22T14:36:57.000Z,66.8
2023-02-22T14:38:12.000Z,69.1
2023-02-22T14:39:28.000Z,69.3
2023-02-22T14:40:44.000Z,67.9
2023-02-22T14:42:00.000Z,66.7
2023-02-22T14:43:17.000Z,67
2023-02-22T14:44:33.000Z,66.5
2023-02-22T14:45:49.000Z,67.3
2023-02-22T14:47:05.000Z,66.6
2023-02-22T14:48:21.000Z,67.3
2023-02-22T14:49:37.000Z,66.4
2023-02-22T14:50:53.000Z,66
2023-02-22T14:52:10.000Z,67.3
2023-02-22T14:53:26.000Z,66.2
2023-02-22T14:54:41.000Z,65.6
2023-02-22T14:55:57.000Z,66.6
2023-02-22T14:57:13.000Z,67.5
2023-02-22T14:58:29.000Z,67.2
2023-02-22T14:59:46.000Z,67.8
2023-02-22T15:01:02.000Z,67.3
2023-02-22T15:02:18.000Z,66.3
2023-02-22T15:03:34.000Z,66.8
2023-02-22T15:04:50.000Z,67.2
2023-02-22T15:06:06.000Z,67.2
2023-02-22T15:07:23.117Z,66.4
2023-02-22T15:08:39.000Z,65.3
2023-02-22T15:09:55.000Z,65.2
2023-02-22T15:11:10.000Z,65.5
2023-02-22T15:12:26.724Z,64.7
2023-02-22T15:13:42.000Z,64.4
2023-02-22T15:14:58.000Z,65.6
2023-02-22T15:16:14.000Z,66.3
2023-02-22T15:17:31.000Z,65.5
2023-02-22T15:18:47.000Z,66.3
2023-02-22T15:20:03.000Z,67.2
2023-02-22T15:21:19.000Z,66.5
2023-02-22T15:22:35.000Z,64.8
2023-02-22T15:23:51.000Z,64.1
2023-02-22T15:25:07.000Z,64.8
2023-02-22T15:26:24.000Z,64.9
2023-02-22T15:27:39.000Z,64.7
2023-02-22T15:28:55.000Z,64.5
2023-02-22T15:30:11.000Z,65.2
2023-02-22T15:32:44.088Z,64.4
2023-02-22T15:33:59.000Z,65
2023-02-22T15:35:15.000Z,65.2
2023-02-22T15:36:31.000Z,65.4
2023-02-22T15:37:47.000Z,65.2
2023-02-22T15:39:03.000Z,65.8
2023-02-22T15:40:19.000Z,65.5
2023-02-22T15:41:35.000Z,65.4
2023-02-22T15:42:52.000Z,65.1
2023-02-22T15:44:08.000Z,64.8
2023-02-22T15:45:24.000Z,65.2
2023-02-22T15:46:40.000Z,65.5
2023-02-22T15:47:56.000Z,65.5
2023-02-22T15:49:12.000Z,64.9
2023-02-22T15:50:28.000Z,64.6
2023-02-22T15:51:44.000Z,64.3
2023-02-22T15:53:00.474Z,64.7
2023-02-22T15:54:16.000Z,64.5
2023-02-22T15:55:32.000Z,66.1
2023-02-22T15:56:48.000Z,66.3
2023-02-22T15:58:04.000Z,64.6
2023-02-22T15:59:20.000Z,62.5
2023-02-22T16:00:37.000Z,61.5
2023-02-22T16:01:53.000Z,61.2
2023-02-22T16:03:09.645Z,61.2
2023-02-22T16:04:25.000Z,61.1
2023-02-22T16:05:41.938Z,60.6
2023-02-22T16:06:58.089Z,60.5
2023-02-22T16:08:13.000Z,61.7
2023-02-22T16:09:29.395Z,61.5
2023-02-22T16:10:45.000Z,60.3
2023-02-22T16:12:01.000Z,60.5
2023-02-22T16:13:17.000Z,60.4
2023-02-22T16:14:33.000Z,60.4
2023-02-22T16:15:49.000Z,59.7
2023-02-22T16:17:06.000Z,59.5
2023-02-22T16:18:22.000Z,59.4
2023-02-22T16:19:38.570Z,59.4
2023-02-22T16:20:54.000Z,59.6
2023-02-22T16:22:10.000Z,59.9
2023-02-22T16:23:26.000Z,59.7
2023-02-22T16:24:41.951Z,60.8
2023-02-22T16:25:58.000Z,59.7
2023-02-22T16:27:14.000Z,58.6
2023-02-22T16:28:30.616Z,57.5
2023-02-22T16:29:46.762Z,56.9
2023-02-22T16:31:02.000Z,56.2
2023-02-22T16:32:19.051Z,56.1
2023-02-22T16:33:34.000Z,56
2023-02-22T16:34:51.000Z,55.7
2023-02-22T16:36:07.000Z,55.7
2023-02-22T16:37:23.000Z,56.1
2023-02-22T16:38:39.000Z,56.9
2023-02-22T16:39:55.928Z,55.8
2023-02-22T16:41:11.092Z,55.3
2023-02-22T16:42:27.000Z,55.5
2023-02-22T16:43:43.384Z,55.2
2023-02-22T16:44:59.000Z,55.2
2023-02-22T16:46:15.000Z,55.1
2023-02-22T16:47:31.000Z,55
2023-02-22T16:48:47.000Z,54.6
2023-02-22T16:50:04.124Z,54.4
2023-02-22T16:51:20.000Z,53.5
2023-02-22T16:52:36.000Z,53.8
2023-02-22T16:53:52.555Z,53.6
2023-02-22T16:55:08.000Z,52.9
2023-02-22T16:56:24.000Z,52.8
2023-02-22T16:57:39.000Z,52.1
2023-02-22T16:58:55.000Z,51.4
2023-02-22T17:00:12.000Z,51.2
2023-02-22T17:01:28.455Z,50.8
2023-02-22T17:02:44.611Z,50.2
2023-02-22T17:04:00.000Z,49.2
2023-02-22T17:05:16.000Z,49.4
2023-02-22T17:06:32.000Z,52.2
2023-02-22T17:07:48.000Z,57.2
2023-02-22T17:09:05.000Z,54.8
2023-02-22T17:10:21.000Z,50.5
2023-02-22T17:11:37.000Z,48.2
2023-02-22T17:12:53.000Z,47.3
2023-02-22T17:14:08.000Z,45.4
2023-02-22T17:15:24.000Z,43.7
2023-02-22T17:16:41.000Z,48.5
2023-02-22T17:17:57.000Z,48.8
2023-02-22T17:19:13.000Z,49.6
2023-02-22T17:20:29.000Z,50.7
2023-02-22T17:21:45.000Z,50
2023-02-22T17:23:01.000Z,47.7
2023-02-22T17:24:18.121Z,43.2
2023-02-22T17:25:34.000Z,40.7
2023-02-22T17:26:50.416Z,40.1
2023-02-22T17:28:06.000Z,37.7
2023-02-22T17:29:22.000Z,38.1
2023-02-22T17:30:37.000Z,38.6
2023-02-22T17:31:53.000Z,38.5
2023-02-22T17:33:09.000Z,38.7
2023-02-22T17:34:26.000Z,38.9
2023-02-22T17:35:42.000Z,38.6
2023-02-22T17:36:58.000Z,38
2023-02-22T17:38:14.000Z,38.1
2023-02-22T17:39:30.000Z,38.4
2023-02-22T17:40:46.000Z,38.7
2023-02-22T17:42:02.000Z,38.6
2023-02-22T17:43:19.343Z,38.3
2023-02-22T17:44:35.000Z,38.3
2023-02-22T17:45:51.000Z,38.1
2023-02-22T17:47:06.000Z,38.2
2023-02-22T17:48:22.000Z,37.8
2023-02-22T17:49:38.000Z,37.4
2023-02-22T17:50:55.000Z,37.3
2023-02-22T17:52:11.000Z,37
2023-02-22T17:53:27.000Z,37.1
2023-02-22T17:54:43.000Z,37.2
2023-02-22T17:55:59.000Z,36.9